Time;durP1;ratioP1;P1;durP2;ratioP2;P2;SDS_P1;SDS_P2;PMS_P1;PMS_P2;Temp;Humidity;BMP_temperature;BMP_pressure;BME280_temperature;BME280_humidity;BME280_pressure;Samples;Min_cycle;Max_cycle;Signal;HPM_P1;HPM_P2
2021/01/14 00:01:20;;;;;;;4.97;3.95;;;0.90;1.00;;;;;;5035718;28;20290;-88
2021/01/14 00:03:47;;;;;;;5.50;2.78;;;1.00;1.00;;;;;;5038867;28;20284;-86
2021/01/14 00:06:14;;;;;;;4.70;2.63;;;1.00;1.00;;;;;;5035469;28;20269;-85
2021/01/14 00:08:57;;;;;;;3.83;2.50;;;1.00;1.00;;;;;;5128988;22;20217;-87
2021/01/14 00:11:43;;;;;;;3.20;2.90;;;1.00;1.00;;;;;;5077960;28;20216;-87
2021/01/14 00:16:51;;;;;;;3.05;2.67;;;0.90;1.00;;;;;;5242974;22;20703;-86
2021/01/14 00:19:18;;;;;;;4.80;2.83;;;0.90;1.00;;;;;;5112773;27;20238;-88
2021/01/14 00:21:45;;;;;;;3.35;2.60;;;0.80;1.00;;;;;;5088832;28;20220;-88
2021/01/14 00:24:12;;;;;;;4.90;3.58;;;0.70;1.00;;;;;;5087590;28;20239;-87
2021/01/14 00:26:40;;;;;;;4.07;2.88;;;0.60;1.00;;;;;;5087759;28;20239;-88
2021/01/14 00:29:07;;;;;;;6.38;3.45;;;0.60;1.00;;;;;;5100397;28;21098;-88
2021/01/14 00:31:35;;;;;;;4.50;3.10;;;0.70;1.00;;;;;;5101132;28;20216;-86
2021/01/14 00:34:02;;;;;;;4.30;3.03;;;0.60;1.00;;;;;;5083930;28;20228;-87
2021/01/14 00:36:32;;;;;;;3.75;3.17;;;0.70;1.00;;;;;;5103665;28;20226;-88
2021/01/14 00:39:00;;;;;;;5.15;3.35;;;0.70;1.00;;;;;;5107971;28;21086;-87
2021/01/14 00:41:27;;;;;;;4.57;3.70;;;0.60;1.00;;;;;;5082150;28;20221;-86
2021/01/14 00:43:58;;;;;;;4.30;3.33;;;0.60;1.00;;;;;;5088411;28;20232;-89
2021/01/14 00:46:24;;;;;;;4.18;3.70;;;0.60;1.00;;;;;;5086742;28;20267;-87
2021/01/14 00:48:51;;;;;;;4.68;3.80;;;0.60;1.00;;;;;;5087817;28;20232;-88
2021/01/14 00:51:18;;;;;;;4.10;3.70;;;0.60;1.00;;;;;;5099793;28;20268;-86
2021/01/14 00:53:44;;;;;;;3.72;3.10;;;0.60;1.00;;;;;;5086685;28;20786;-87
2021/01/14 00:56:11;;;;;;;11.63;5.60;;;0.60;1.00;;;;;;5112531;28;20216;-85
2021/01/14 00:58:37;;;;;;;5.82;4.25;;;0.70;1.00;;;;;;5087720;28;20231;-86
2021/01/14 01:01:05;;;;;;;5.40;4.30;;;0.70;1.00;;;;;;5086153;28;20259;-86
2021/01/14 01:03:32;;;;;;;4.68;4.28;;;0.70;1.00;;;;;;5084476;28;20216;-87
2021/01/14 01:06:00;;;;;;;5.20;3.90;;;0.70;1.00;;;;;;5099238;28;20212;-86
2021/01/14 01:08:26;;;;;;;4.35;3.60;;;0.70;1.00;;;;;;5095501;28;20303;-86
2021/01/14 01:10:53;;;;;;;5.32;2.97;;;0.80;1.00;;;;;;5087076;28;20228;-87
2021/01/14 01:13:19;;;;;;;3.60;3.30;;;0.80;1.00;;;;;;5102326;28;20321;-86
2021/01/14 01:15:49;;;;;;;3.80;3.50;;;0.80;1.00;;;;;;5104012;28;21094;-87
2021/01/14 01:18:17;;;;;;;4.00;3.60;;;0.80;1.00;;;;;;5087662;28;20224;-86
2021/01/14 01:20:46;;;;;;;5.05;3.50;;;0.80;1.00;;;;;;5087381;28;20224;-87
2021/01/14 01:23:13;;;;;;;3.65;3.20;;;0.80;1.00;;;;;;5101544;28;20243;-86
2021/01/14 01:25:39;;;;;;;8.43;4.10;;;0.80;1.00;;;;;;5083312;28;20245;-86
2021/01/14 01:28:09;;;;;;;5.38;4.45;;;0.80;1.00;;;;;;5080379;28;20223;-87
2021/01/14 01:30:35;;;;;;;5.57;3.40;;;0.90;1.00;;;;;;5106223;28;20228;-85
2021/01/14 01:33:05;;;;;;;6.30;3.95;;;0.80;1.00;;;;;;5090619;28;20228;-86
2021/01/14 01:35:32;;;;;;;4.07;3.33;;;0.90;1.00;;;;;;5087062;28;21044;-87
2021/01/14 01:37:59;;;;;;;3.78;3.30;;;0.90;1.00;;;;;;5101815;28;20708;-86
2021/01/14 01:40:26;;;;;;;3.40;3.10;;;0.90;1.00;;;;;;5080243;28;20224;-88
2021/01/14 01:42:55;;;;;;;2.90;2.53;;;0.90;1.00;;;;;;5082280;28;20220;-87
2021/01/14 01:45:22;;;;;;;3.05;2.75;;;0.90;1.00;;;;;;5087012;28;20235;-86
2021/01/14 01:47:49;;;;;;;4.65;2.47;;;0.90;1.00;;;;;;5082418;28;20291;-85
2021/01/14 01:50:19;;;;;;;1.77;1.67;;;0.90;1.00;;;;;;5082917;28;20299;-85
2021/01/14 01:52:49;;;;;;;2.60;2.40;;;0.90;1.00;;;;;;5083899;28;20224;-86
2021/01/14 01:55:18;;;;;;;2.20;1.90;;;0.90;1.00;;;;;;5080258;28;20230;-86
2021/01/14 01:57:45;;;;;;;3.30;1.73;;;0.90;1.00;;;;;;5080816;28;20224;-86
2021/01/14 02:00:13;;;;;;;2.00;1.80;;;1.00;1.00;;;;;;5110085;28;20220;-87
2021/01/14 02:02:40;;;;;;;2.25;2.05;;;1.00;1.00;;;;;;5114947;27;20212;-86
2021/01/14 02:05:09;;;;;;;1.77;1.67;;;1.10;1.00;;;;;;5105241;27;20239;-85
2021/01/14 02:07:51;;;;;;;1.88;1.55;;;1.10;1.00;;;;;;5092515;28;20306;-87
2021/01/14 02:10:22;;;;;;;2.47;1.63;;;1.10;1.00;;;;;;5080009;28;20255;-87
2021/01/14 02:13:03;;;;;;;2.30;1.70;;;1.10;1.00;;;;;;5087865;28;20284;-86
2021/01/14 02:15:33;;;;;;;1.52;1.42;;;1.10;1.00;;;;;;5082336;28;20232;-86
2021/01/14 02:18:00;;;;;;;1.90;1.10;;;1.10;1.00;;;;;;5088930;28;20225;-86
2021/01/14 02:20:28;;;;;;;1.80;1.02;;;1.10;1.00;;;;;;5082301;28;20227;-87
2021/01/14 02:23:01;;;;;;;1.60;1.00;;;1.10;1.00;;;;;;5085203;28;20295;-86
2021/01/14 02:25:34;;;;;;;1.15;1.05;;;1.10;1.00;;;;;;5100225;28;20224;-87
2021/01/14 02:28:03;;;;;;;3.38;1.38;;;1.10;1.00;;;;;;5085220;28;20232;-86
2021/01/14 02:30:30;;;;;;;2.85;1.50;;;1.10;1.00;;;;;;5087783;28;20289;-86
2021/01/14 02:32:56;;;;;;;1.80;1.52;;;1.10;1.00;;;;;;5118894;27;20231;-86
2021/01/14 02:35:23;;;;;;;0.80;0.80;;;1.10;1.00;;;;;;5095684;28;20221;-86
2021/01/14 02:37:49;;;;;;;3.58;1.45;;;1.10;1.00;;;;;;5098708;28;20992;-84
2021/01/14 02:40:16;;;;;;;1.73;1.45;;;1.20;1.00;;;;;;5088987;28;20277;-85
2021/01/14 02:42:43;;;;;;;2.88;1.70;;;1.20;1.00;;;;;;5107273;28;20308;-85
2021/01/14 02:45:12;;;;;;;5.45;2.92;;;1.10;1.00;;;;;;5086828;28;20224;-87
2021/01/14 02:47:42;;;;;;;2.00;1.23;;;1.10;1.00;;;;;;5103111;28;20236;-86
2021/01/14 02:50:11;;;;;;;2.30;1.65;;;1.10;1.00;;;;;;5083229;28;20271;-86
2021/01/14 02:52:39;;;;;;;2.28;1.92;;;1.20;1.00;;;;;;5086016;28;20232;-86
2021/01/14 02:55:08;;;;;;;4.55;2.00;;;1.20;1.00;;;;;;5097674;28;20216;-87
2021/01/14 02:57:36;;;;;;;2.88;1.92;;;1.20;1.00;;;;;;5096578;28;20236;-86
2021/01/14 03:00:04;;;;;;;2.50;2.30;;;1.20;1.00;;;;;;5091764;28;20227;-87
2021/01/14 03:02:32;;;;;;;4.05;2.47;;;1.20;1.00;;;;;;5083878;28;20298;-85
2021/01/14 03:04:58;;;;;;;4.80;2.47;;;1.20;1.00;;;;;;5084393;28;20228;-86
2021/01/14 03:07:25;;;;;;;3.72;2.60;;;1.20;1.00;;;;;;5088114;28;20241;-86
2021/01/14 03:09:51;;;;;;;2.85;2.30;;;1.20;1.00;;;;;;5098624;28;20258;-85
2021/01/14 03:12:18;;;;;;;3.53;3.15;;;1.20;1.00;;;;;;5116620;28;20201;-85
2021/01/14 03:14:45;;;;;;;3.42;3.10;;;1.20;1.00;;;;;;5090887;28;20232;-85
2021/01/14 03:17:11;;;;;;;3.80;2.75;;;1.20;1.00;;;;;;5108557;28;20243;-85
2021/01/14 03:19:39;;;;;;;3.78;3.08;;;1.30;1.00;;;;;;5082918;28;20322;-87
2021/01/14 03:22:05;;;;;;;3.15;2.80;;;1.30;1.00;;;;;;5081901;28;20228;-87
2021/01/14 03:24:32;;;;;;;2.58;2.30;;;1.30;1.00;;;;;;5100750;28;20691;-87
2021/01/14 03:26:58;;;;;;;4.75;2.97;;;1.30;1.00;;;;;;5074345;28;20237;-87
2021/01/14 03:29:25;;;;;;;3.50;3.20;;;1.40;1.00;;;;;;5079282;28;20240;-86
2021/01/14 03:31:52;;;;;;;5.25;3.17;;;1.40;1.00;;;;;;5093906;28;20224;-86
2021/01/14 03:34:18;;;;;;;3.45;2.83;;;1.30;1.00;;;;;;5076161;28;20225;-88
2021/01/14 03:37:00;;;;;;;7.78;4.70;;;1.40;1.00;;;;;;5089707;28;20247;-87
2021/01/14 03:39:28;;;;;;;6.40;3.60;;;1.40;1.00;;;;;;5112098;27;20234;-87
2021/01/14 03:41:56;;;;;;;4.05;3.65;;;1.40;1.00;;;;;;5106481;28;20208;-87
2021/01/14 03:44:23;;;;;;;3.92;3.00;;;1.40;1.00;;;;;;5118911;27;20235;-87
2021/01/14 03:46:51;;;;;;;5.68;3.75;;;1.40;1.00;;;;;;5100401;28;20218;-87
2021/01/14 03:49:18;;;;;;;4.20;3.45;;;1.40;1.00;;;;;;5106618;28;20216;-85
2021/01/14 03:51:48;;;;;;;3.90;3.40;;;1.40;1.00;;;;;;5084764;28;20256;-86
2021/01/14 03:54:20;;;;;;;5.93;3.70;;;1.40;1.00;;;;;;5096872;28;20227;-88
2021/01/14 03:56:47;;;;;;;4.30;3.42;;;1.40;1.00;;;;;;5079666;28;20224;-87
2021/01/14 03:59:14;;;;;;;6.35;5.75;;;1.40;1.00;;;;;;5095132;28;20694;-87
2021/01/14 04:01:41;;;;;;;6.07;4.28;;;1.40;1.00;;;;;;5097862;28;21399;-87
2021/01/14 04:04:08;;;;;;;4.32;3.53;;;1.40;1.00;;;;;;5079342;28;20324;-86
2021/01/14 04:06:37;;;;;;;6.45;5.03;;;1.40;1.00;;;;;;5099078;28;20248;-87
2021/01/14 04:09:05;;;;;;;4.00;3.58;;;1.40;1.00;;;;;;5080792;28;20231;-87
2021/01/14 04:11:33;;;;;;;6.30;4.15;;;1.40;1.00;;;;;;5086446;28;20220;-87
2021/01/14 04:14:00;;;;;;;6.40;4.53;;;1.40;1.00;;;;;;5081751;28;20225;-87
2021/01/14 04:16:27;;;;;;;4.88;3.75;;;1.50;1.00;;;;;;5082314;28;20216;-86
2021/01/14 04:18:53;;;;;;;4.95;3.90;;;1.40;1.00;;;;;;5084070;28;20406;-86
2021/01/14 04:21:20;;;;;;;6.90;4.65;;;1.50;1.00;;;;;;5086218;28;20251;-87
2021/01/14 04:23:47;;;;;;;5.40;4.72;;;1.50;1.00;;;;;;5087579;28;20214;-86
2021/01/14 04:26:16;;;;;;;6.57;4.80;;;1.50;1.00;;;;;;5105468;28;20259;-88
2021/01/14 04:28:43;;;;;;;9.25;6.60;;;1.60;1.00;;;;;;5098983;28;20244;-89
2021/01/14 04:31:13;;;;;;;10.75;5.65;;;1.50;1.00;;;;;;5084428;28;20259;-88
2021/01/14 04:33:40;;;;;;;8.32;7.53;;;1.60;1.00;;;;;;5076651;28;20236;-87
2021/01/14 04:36:09;;;;;;;7.07;5.40;;;1.60;1.00;;;;;;5088688;28;20224;-86
2021/01/14 04:38:36;;;;;;;12.40;5.88;;;1.60;1.00;;;;;;5098697;28;20238;-87
2021/01/14 04:41:04;;;;;;;10.85;7.00;;;1.60;1.00;;;;;;5094983;28;20216;-86
2021/01/14 04:43:34;;;;;;;10.27;7.03;;;1.70;1.00;;;;;;5101324;28;20225;-86
2021/01/14 04:46:04;;;;;;;9.60;6.22;;;1.70;1.00;;;;;;5101225;28;20233;-86
2021/01/14 04:48:34;;;;;;;9.63;6.55;;;1.80;1.00;;;;;;5088282;28;20231;-85
2021/01/14 04:51:06;;;;;;;8.93;6.95;;;1.80;1.00;;;;;;5105671;28;20212;-86
2021/01/14 04:53:35;;;;;;;8.77;7.30;;;1.80;1.00;;;;;;5087524;28;20220;-86
2021/01/14 04:56:04;;;;;;;8.10;5.90;;;1.90;1.00;;;;;;5098675;28;20762;-85
2021/01/14 04:58:33;;;;;;;8.55;6.90;;;1.90;1.00;;;;;;5102161;28;20227;-86
2021/01/14 05:01:04;;;;;;;8.63;6.55;;;1.90;1.00;;;;;;5100098;28;20229;-87
2021/01/14 05:03:34;;;;;;;9.68;7.10;;;1.90;1.00;;;;;;5082983;28;20236;-86
2021/01/14 05:06:03;;;;;;;11.75;7.85;;;1.80;1.00;;;;;;5100454;28;20258;-86
2021/01/14 05:08:32;;;;;;;10.70;7.60;;;1.90;1.00;;;;;;5092363;28;20231;-85
2021/01/14 05:10:59;;;;;;;10.43;8.50;;;1.90;1.00;;;;;;5082237;28;20901;-86
2021/01/14 05:13:29;;;;;;;11.80;8.85;;;1.90;1.00;;;;;;5087515;28;21035;-86
2021/01/14 05:15:57;;;;;;;12.35;8.95;;;1.90;1.00;;;;;;5084080;28;20260;-87
2021/01/14 05:18:24;;;;;;;15.30;10.57;;;1.90;1.00;;;;;;5090062;28;20311;-87
2021/01/14 05:20:51;;;;;;;36.03;24.10;;;1.90;1.00;;;;;;5091867;28;20220;-86
2021/01/14 05:23:20;;;;;;;17.48;9.98;;;1.90;1.00;;;;;;5081294;28;20302;-86
2021/01/14 05:25:52;;;;;;;16.20;9.93;;;1.90;1.00;;;;;;5102404;28;20220;-86
2021/01/14 05:28:20;;;;;;;15.60;10.43;;;2.00;1.00;;;;;;5114236;27;20236;-87
2021/01/14 05:30:47;;;;;;;14.43;11.43;;;2.00;1.00;;;;;;5127118;28;20230;-86
2021/01/14 05:33:17;;;;;;;15.68;9.65;;;2.00;1.00;;;;;;5104359;28;20213;-85
2021/01/14 05:35:49;;;;;;;14.20;10.15;;;2.00;1.00;;;;;;5089734;28;20285;-86
2021/01/14 05:38:22;;;;;;;14.18;9.50;;;2.00;1.00;;;;;;5102513;28;20255;-87
2021/01/14 05:43:51;;;;;;;13.43;10.15;;;2.00;1.00;;;;;;5104372;28;20224;-86
2021/01/14 05:46:19;;;;;;;14.77;11.65;;;2.00;1.00;;;;;;5105677;28;20216;-86
2021/01/14 05:48:49;;;;;;;18.23;10.95;;;2.10;1.00;;;;;;5088644;28;20285;-88
2021/01/14 05:51:17;;;;;;;17.02;11.18;;;2.10;1.00;;;;;;5098366;28;20275;-88
2021/01/14 05:53:58;;;;;;;13.63;10.43;;;2.10;1.00;;;;;;5086978;28;20341;-86
2021/01/14 05:56:38;;;;;;;14.13;10.82;;;2.10;1.00;;;;;;5101067;28;20228;-85
2021/01/14 05:59:06;;;;;;;13.20;9.88;;;2.10;1.00;;;;;;5103395;28;20278;-86
2021/01/14 06:01:33;;;;;;;15.45;10.45;;;2.00;1.00;;;;;;5097230;28;20219;-87
2021/01/14 06:04:18;;;;;;;13.60;10.35;;;1.90;1.00;;;;;;5085992;28;20216;-87
2021/01/14 06:06:45;;;;;;;15.35;10.73;;;1.90;1.00;;;;;;5099945;28;20925;-87
2021/01/14 06:09:14;;;;;;;15.85;11.43;;;1.80;1.00;;;;;;5101323;28;20240;-88
2021/01/14 06:11:41;;;;;;;17.27;9.98;;;1.80;1.00;;;;;;5101171;28;20247;-87
2021/01/14 06:14:07;;;;;;;14.13;11.90;;;1.80;1.00;;;;;;5105510;28;20279;-86
2021/01/14 06:16:50;;;;;;;15.65;11.57;;;1.80;1.00;;;;;;5104946;28;20247;-86
2021/01/14 06:19:18;;;;;;;15.73;11.40;;;1.80;1.00;;;;;;5086407;28;20213;-85
2021/01/14 06:21:46;;;;;;;18.13;13.90;;;1.80;1.00;;;;;;5105629;28;20212;-84
2021/01/14 06:24:19;;;;;;;17.73;10.90;;;1.80;1.00;;;;;;5117558;27;20212;-84
2021/01/14 06:26:46;;;;;;;15.48;11.82;;;1.80;1.00;;;;;;5092433;28;20224;-85
2021/01/14 06:29:21;;;;;;;14.00;10.98;;;1.80;1.00;;;;;;5100347;28;20301;-85
2021/01/14 06:31:48;;;;;;;14.50;11.48;;;1.80;1.00;;;;;;5119878;27;20228;-83
2021/01/14 06:34:18;;;;;;;14.13;11.90;;;1.80;1.00;;;;;;5093906;27;20225;-84
2021/01/14 06:36:50;;;;;;;13.98;11.27;;;1.80;1.00;;;;;;5090282;28;20258;-86
2021/01/14 06:39:18;;;;;;;17.67;12.75;;;1.70;1.00;;;;;;5096733;28;20219;-84
2021/01/14 06:41:46;;;;;;;15.13;10.43;;;1.70;1.00;;;;;;5097193;28;20743;-84
2021/01/14 06:44:15;;;;;;;16.70;11.60;;;1.70;1.00;;;;;;5085779;28;21336;-85
2021/01/14 06:46:42;;;;;;;17.63;12.45;;;1.70;1.00;;;;;;5076424;28;20260;-85
2021/01/14 06:49:11;;;;;;;21.17;15.00;;;1.70;1.00;;;;;;5078342;28;20323;-85
2021/01/14 06:51:57;;;;;;;16.10;11.05;;;1.80;1.00;;;;;;5102558;28;20212;-86
2021/01/14 06:54:26;;;;;;;20.10;11.98;;;1.80;1.00;;;;;;5082063;28;20228;-84
2021/01/14 06:57:09;;;;;;;18.02;12.90;;;1.70;1.00;;;;;;5096347;28;20220;-87
2021/01/14 06:59:38;;;;;;;45.88;26.83;;;1.70;1.00;;;;;;5087509;28;20228;-87
2021/01/14 07:02:48;;;;;;;25.30;15.77;;;1.60;1.00;;;;;;5080109;28;20234;-86
2021/01/14 07:05:28;;;;;;;14.52;10.77;;;1.70;1.00;;;;;;5080157;28;20227;-86
2021/01/14 07:08:18;;;;;;;12.35;9.63;;;1.70;1.00;;;;;;5100086;28;20449;-87
2021/01/14 07:11:00;;;;;;;18.08;11.48;;;1.70;1.00;;;;;;5091894;28;20336;-85
2021/01/14 07:13:31;;;;;;;14.85;12.50;;;1.70;1.00;;;;;;5086140;28;20762;-85
2021/01/14 07:15:59;;;;;;;14.68;10.18;;;1.80;1.00;;;;;;5104002;28;21017;-86
2021/01/14 07:18:28;;;;;;;12.27;9.15;;;1.80;1.00;;;;;;5084327;28;20242;-87
2021/01/14 07:21:00;;;;;;;17.42;11.23;;;1.80;1.00;;;;;;5091948;28;20668;-85
2021/01/14 07:23:30;;;;;;;14.15;11.10;;;1.80;1.00;;;;;;5096956;28;20224;-84
2021/01/14 07:25:59;;;;;;;22.77;10.23;;;1.80;1.00;;;;;;5096721;28;20912;-85
2021/01/14 07:28:25;;;;;;;13.30;9.88;;;1.80;1.00;;;;;;5109992;28;20395;-85
2021/01/14 07:30:52;;;;;;;14.98;9.80;;;1.80;1.00;;;;;;5084255;28;20234;-86
2021/01/14 07:33:26;;;;;;;13.02;9.65;;;1.80;1.00;;;;;;5105491;28;20239;-87
2021/01/14 07:35:54;;;;;;;13.05;10.70;;;1.80;1.00;;;;;;5111428;28;20230;-83
2021/01/14 07:38:21;;;;;;;15.07;10.35;;;1.70;1.00;;;;;;5115529;28;20233;-84
2021/01/14 07:40:54;;;;;;;12.65;9.68;;;1.70;1.00;;;;;;5119966;28;20241;-86
2021/01/14 07:43:31;;;;;;;23.80;11.70;;;1.70;1.00;;;;;;5129768;28;20306;-86
2021/01/14 07:46:17;;;;;;;16.10;10.50;;;1.80;1.00;;;;;;5103481;28;21015;-85
2021/01/14 07:48:44;;;;;;;11.77;8.70;;;1.70;1.00;;;;;;5082673;28;20272;-86
2021/01/14 07:51:11;;;;;;;12.70;9.60;;;1.70;1.00;;;;;;5102391;28;20968;-85
2021/01/14 07:53:38;;;;;;;36.88;22.23;;;1.70;1.00;;;;;;5099384;28;20209;-84
2021/01/14 07:56:28;;;;;;;13.60;10.85;;;1.70;1.00;;;;;;5117602;27;20212;-85
2021/01/14 07:58:58;;;;;;;14.60;10.65;;;1.60;1.00;;;;;;5139033;27;20227;-86
2021/01/14 08:01:25;;;;;;;11.63;9.25;;;1.60;1.00;;;;;;5108816;27;20230;-88
2021/01/14 08:03:52;;;;;;;21.48;10.32;;;1.60;1.00;;;;;;5084568;28;20228;-85
2021/01/14 08:06:29;;;;;;;13.45;8.68;;;1.60;1.00;;;;;;5090620;28;20235;-84
2021/01/14 08:09:01;;;;;;;12.23;8.23;;;1.70;1.00;;;;;;5096920;28;20285;-85
2021/01/14 08:11:31;;;;;;;13.30;8.95;;;1.80;1.00;;;;;;5107068;28;20226;-85
2021/01/14 08:14:16;;;;;;;14.18;8.93;;;2.00;1.00;;;;;;5101094;28;20208;-85
2021/01/14 08:16:45;;;;;;;14.15;8.57;;;2.10;1.00;;;;;;5096558;28;20233;-86
2021/01/14 08:19:20;;;;;;;11.10;8.38;;;2.30;1.00;;;;;;5082310;28;20231;-85
2021/01/14 08:21:48;;;;;;;10.27;7.57;;;2.30;1.00;;;;;;5082617;28;20227;-86
2021/01/14 08:24:39;;;;;;;12.68;8.43;;;2.30;1.00;;;;;;5082117;28;20220;-83
2021/01/14 08:27:09;;;;;;;10.98;8.25;;;2.30;1.00;;;;;;5082772;28;21405;-87
2021/01/14 08:29:41;;;;;;;14.07;7.55;;;2.30;1.00;;;;;;5100033;28;20356;-85
2021/01/14 08:32:28;;;;;;;11.02;9.32;;;2.30;1.00;;;;;;5081327;28;20240;-83
2021/01/14 08:34:57;;;;;;;9.93;7.47;;;2.30;1.00;;;;;;5086148;28;20247;-89
2021/01/14 08:37:33;;;;;;;10.75;8.13;;;2.30;1.00;;;;;;5086267;28;20222;-88
2021/01/14 08:40:03;;;;;;;11.07;8.10;;;2.40;1.00;;;;;;5082314;28;20227;-88
2021/01/14 08:42:32;;;;;;;11.05;7.85;;;2.50;1.00;;;;;;5088766;28;20851;-88
2021/01/14 08:45:06;;;;;;;9.85;8.13;;;2.50;1.00;;;;;;5088563;28;20228;-87
2021/01/14 08:47:59;;;;;;;8.65;6.43;;;2.50;1.00;;;;;;5113089;27;20334;-88
2021/01/14 08:50:46;;;;;;;10.77;7.28;;;2.50;1.00;;;;;;5107040;28;20282;-89
2021/01/14 08:53:27;;;;;;;8.10;6.97;;;2.60;1.00;;;;;;5085683;28;20335;-88
2021/01/14 08:56:09;;;;;;;7.70;6.90;;;2.60;1.00;;;;;;5110697;28;20212;-90
2021/01/14 09:02:44;;;;;;;9.63;6.43;;;2.90;1.00;;;;;;5111277;28;20212;-89
2021/01/14 09:05:12;;;;;;;8.68;5.80;;;3.10;1.00;;;;;;5107238;28;20252;-89
2021/01/14 09:07:40;;;;;;;18.38;17.17;;;3.20;1.00;;;;;;5094838;28;20232;-87
2021/01/14 09:10:08;;;;;;;8.55;6.70;;;3.20;1.00;;;;;;5102282;27;20211;-86
2021/01/14 09:12:37;;;;;;;9.02;6.72;;;3.20;1.00;;;;;;5104110;27;20255;-88
2021/01/14 09:15:05;;;;;;;8.75;4.95;;;3.30;1.00;;;;;;5105239;27;20208;-87
2021/01/14 09:17:34;;;;;;;7.60;5.20;;;3.40;1.00;;;;;;5097327;28;20228;-89
2021/01/14 09:20:01;;;;;;;6.85;4.72;;;3.50;1.00;;;;;;5099358;28;20204;-90
2021/01/14 09:22:35;;;;;;;7.13;4.90;;;3.60;1.00;;;;;;5091495;28;20346;-90
2021/01/14 09:25:05;;;;;;;6.70;5.15;;;3.60;1.00;;;;;;5097757;28;20279;-88
2021/01/14 09:27:33;;;;;;;5.60;4.60;;;3.60;1.00;;;;;;5112585;28;20228;-88
2021/01/14 09:30:01;;;;;;;8.13;5.75;;;3.70;1.00;;;;;;5094828;28;20221;-89
2021/01/14 10:42:49;;;;;;;14.48;6.80;;;5.00;1.00;;;;;;5084573;28;20208;-90
2021/01/14 10:45:26;;;;;;;8.85;7.38;;;4.80;1.00;;;;;;5084073;28;20224;-89
2021/01/14 10:48:09;;;;;;;9.50;7.82;;;4.80;1.00;;;;;;5084401;28;20288;-90
2021/01/14 10:50:58;;;;;;;8.93;6.50;;;4.80;1.00;;;;;;5077811;28;20224;-88
2021/01/14 10:53:27;;;;;;;11.85;7.47;;;4.90;1.00;;;;;;5095592;28;20244;-90
2021/01/14 10:56:05;;;;;;;9.27;6.70;;;4.90;1.00;;;;;;5088289;28;20264;-89
2021/01/14 10:58:34;;;;;;;9.23;7.30;;;4.80;1.00;;;;;;5089898;28;20264;-88
2021/01/14 11:01:06;;;;;;;8.48;7.15;;;4.60;1.00;;;;;;5096403;27;20229;-88
2021/01/14 11:03:33;;;;;;;9.90;7.50;;;4.60;1.00;;;;;;5083229;28;20209;-86
2021/01/14 11:06:01;;;;;;;9.00;7.65;;;4.50;1.00;;;;;;5099202;28;20345;-88
2021/01/14 11:08:41;;;;;;;8.32;7.53;;;4.50;1.00;;;;;;5090832;28;20248;-90
2021/01/14 11:11:09;;;;;;;8.00;7.20;;;4.50;1.00;;;;;;5094514;28;20220;-89
2021/01/14 11:13:46;;;;;;;9.48;7.45;;;4.50;1.00;;;;;;5090941;28;20225;-88
2021/01/14 11:16:15;;;;;;;8.90;7.97;;;4.40;1.00;;;;;;5085146;28;20225;-89
2021/01/14 11:18:45;;;;;;;10.30;8.80;;;4.40;1.00;;;;;;5081970;28;20225;-89
2021/01/14 11:21:14;;;;;;;8.85;7.88;;;4.40;1.00;;;;;;5076876;28;20285;-88
2021/01/14 11:23:41;;;;;;;10.60;9.55;;;4.50;1.00;;;;;;5086874;28;20217;-87
2021/01/14 11:26:09;;;;;;;9.95;9.02;;;4.60;1.00;;;;;;5079542;28;20401;-89
2021/01/14 11:28:38;;;;;;;9.95;8.90;;;4.80;1.00;;;;;;5088446;28;20237;-88
2021/01/14 11:31:06;;;;;;;8.00;7.05;;;4.80;1.00;;;;;;5085393;28;21106;-88
2021/01/14 11:33:33;;;;;;;9.23;8.25;;;4.90;1.00;;;;;;5079615;28;20222;-88
2021/01/14 11:36:00;;;;;;;8.68;7.78;;;5.10;1.00;;;;;;5086337;28;20231;-88
2021/01/14 11:38:27;;;;;;;9.85;8.20;;;5.20;1.00;;;;;;5093429;28;20254;-89
2021/01/14 13:19:01;;;;;;;12.00;9.85;;;3.80;1.00;;;;;;4792505;29;20245;-88
